Decoded Metar for PAGL (GOLOVIN in AK, USA) (IATA:GLV) | Meteo·Mobile Aviation Weather
aviador You're here:

PAGL Decoded Metar

GOLOVIN in AK, USA
Report Time2019-10-18 13:56:00
UTC Time2019-10-18 14:47:22
Flight Rules vfr VFR
Wind330° at 06 kt
W.Decomp.*RWY 02: 2.4 kt HW 5.5 kt LCW
Visibility9999 m
Phenomena:N/A
Clouds:N/A
Expected CloudBase > 1,200 ft AGL from Temp-Dew spread
CeilingNone
Temp-4°C (ISA -19)
Dew Point-7°C (80% RH)
AAT-9.0°C
QNH995 hPa
Density Alt-1,640 ft
Elevation26 ft
Report Wrong Elevation
Raw Report
PAGL 181356Z AUTO 33006KT 10SM CLR M04/M07 A2937 RMK AO2 SLP942
T10441067 FZRANO=

Extra information for PAGL:More info

Metar Taf Metar & Taf Last 4 Metars F.Rules Stats Wind Profile Meteogram Temp Stats Airport Information Weather charts Add Link Nearby VenuesMetar ALERT Operation Metar Decoded Social comments

AIRNAV info for PAGL